Time;durP1;ratioP1;P1;durP2;ratioP2;P2;SDS_P1;SDS_P2;PMS_P1;PMS_P2;Temp;Humidity;BMP_temperature;BMP_pressure;BME280_temperature;BME280_humidity;BME280_pressure;Samples;Min_cycle;Max_cycle;Signal;HPM_P1;HPM_P2
2023/03/22 00:02:42;;;;;;;53.23;28.10;;;;;;;4.04;93.49;100073.25;1668427;86;21764;-83
2023/03/22 00:05:50;;;;;;;51.58;25.20;;;;;;;4.08;93.65;100071.97;1668309;86;21241;-82
2023/03/22 00:08:57;;;;;;;50.50;25.92;;;;;;;3.98;93.79;100066.55;1667213;85;21214;-82
2023/03/22 00:12:03;;;;;;;53.60;26.68;;;;;;;3.90;94.62;100066.38;1668706;86;21217;-82
2023/03/22 00:15:09;;;;;;;45.43;25.23;;;;;;;3.87;95.54;100068.03;1667308;86;21780;-82
2023/03/22 00:18:17;;;;;;;44.95;25.45;;;;;;;3.87;95.48;100067.19;1667310;85;21214;-82
2023/03/22 00:21:22;;;;;;;46.08;26.07;;;;;;;3.89;95.36;100068.74;1668196;86;21245;-82
2023/03/22 00:24:28;;;;;;;48.28;26.48;;;;;;;3.97;95.23;100073.47;1667583;86;21265;-82
2023/03/22 00:27:34;;;;;;;53.40;26.85;;;;;;;4.00;95.20;100070.45;1668550;86;21773;-82
2023/03/22 00:30:40;;;;;;;53.13;27.25;;;;;;;4.02;95.59;100072.55;1667347;86;21252;-82
2023/03/22 00:33:46;;;;;;;53.78;25.92;;;;;;;4.03;95.75;100075.10;1668204;86;21249;-82
2023/03/22 00:36:51;;;;;;;45.48;26.42;;;;;;;3.87;95.87;100075.30;1667697;86;21383;-82
2023/03/22 00:39:57;;;;;;;47.98;26.27;;;;;;;3.84;95.66;100069.16;1667568;86;21218;-82
2023/03/22 00:42:56;;;;;;;58.40;26.77;;;;;;;3.96;95.38;100071.77;1667306;86;21205;-82
2023/03/22 00:45:50;;;;;;;46.98;25.82;;;;;;;3.83;95.42;100063.89;1668633;86;21209;-82
2023/03/22 00:48:56;;;;;;;47.50;27.25;;;;;;;3.81;95.98;100055.93;1668575;86;21225;-82
2023/03/22 00:52:02;;;;;;;54.00;28.47;;;;;;;3.80;96.13;100055.55;1668110;86;21241;-82
2023/03/22 00:55:08;;;;;;;50.43;30.40;;;;;;;3.75;97.07;100053.75;1664570;86;21245;-82
2023/03/22 00:58:14;;;;;;;50.48;27.98;;;;;;;3.79;96.94;100061.11;1665634;86;21254;-82
2023/03/22 01:01:20;;;;;;;54.88;29.37;;;;;;;3.79;97.35;100057.90;1665821;86;21245;-82
2023/03/22 01:04:26;;;;;;;51.53;27.30;;;;;;;3.78;97.52;100057.55;1665021;86;21194;-82
2023/03/22 01:07:31;;;;;;;51.50;27.05;;;;;;;3.89;97.50;100053.86;1665225;86;21273;-82
2023/03/22 01:10:39;;;;;;;58.05;30.52;;;;;;;3.87;97.29;100050.95;1665669;86;21771;-82
2023/03/22 01:13:46;;;;;;;55.73;26.33;;;;;;;3.85;97.18;100051.92;1664346;86;21883;-82
2023/03/22 01:16:53;;;;;;;53.92;28.87;;;;;;;3.93;97.41;100060.70;1665655;86;21813;-84
2023/03/22 01:19:58;;;;;;;57.95;30.25;;;;;;;3.95;97.31;100063.27;1665674;86;21190;-81
2023/03/22 01:23:05;;;;;;;58.50;30.65;;;;;;;3.97;97.64;100054.52;1665687;86;21258;-82
2023/03/22 01:26:11;;;;;;;57.13;27.55;;;;;;;4.08;97.99;100059.30;1665641;86;21197;-82
2023/03/22 01:29:19;;;;;;;50.55;27.52;;;;;;;4.10;97.86;100060.02;1665264;86;21245;-82
2023/03/22 01:32:24;;;;;;;50.30;26.20;;;;;;;4.15;97.42;100058.25;1665711;86;21508;-82
2023/03/22 01:35:31;;;;;;;46.90;28.25;;;;;;;4.14;97.36;100056.55;1664741;86;21246;-82
2023/03/22 01:38:37;;;;;;;49.33;27.48;;;;;;;4.14;97.27;100052.95;1664397;86;21214;-81
2023/03/22 01:41:45;;;;;;;56.40;30.65;;;;;;;4.21;97.55;100059.53;1664364;86;21339;-81
2023/03/22 01:44:51;;;;;;;51.23;31.25;;;;;;;4.25;98.07;100056.40;1665229;86;21240;-81
2023/03/22 01:48:02;;;;;;;46.33;28.10;;;;;;;4.27;99.12;100054.39;1665650;86;21785;-82
2023/03/22 01:51:24;;;;;;;55.50;28.17;;;;;;;4.34;99.47;100060.96;1665758;86;21206;-82
2023/03/22 01:54:51;;;;;;;54.50;27.75;;;;;;;4.39;98.75;100055.12;1666011;86;21304;-81
2023/03/22 01:57:59;;;;;;;46.58;25.55;;;;;;;4.46;98.73;100064.87;1668349;86;21225;-81
2023/03/22 02:01:08;;;;;;;54.77;30.12;;;;;;;4.43;98.33;100063.82;1668497;86;21804;-82
2023/03/22 02:04:32;;;;;;;54.23;30.30;;;;;;;4.34;98.22;100067.73;1668463;86;21210;-82
2023/03/22 02:07:34;;;;;;;50.85;29.77;;;;;;;4.32;98.70;100072.42;1668585;86;21254;-81
2023/03/22 02:10:40;;;;;;;51.28;27.95;;;;;;;4.32;99.16;100072.42;1668575;86;21249;-81
2023/03/22 02:14:27;;;;;;;47.85;26.95;;;;;;;4.38;99.23;100077.79;1667758;86;21233;-82
2023/03/22 02:17:52;;;;;;;51.35;30.30;;;;;;;4.41;99.26;100079.34;1665374;86;21213;-82
2023/03/22 02:21:09;;;;;;;50.58;27.00;;;;;;;4.31;99.31;100078.84;1668670;86;21246;-81
2023/03/22 02:25:00;;;;;;;43.98;27.25;;;;;;;4.35;99.21;100080.27;1668543;86;21817;-82
2023/03/22 02:28:20;;;;;;;52.05;30.32;;;;;;;4.35;98.83;100088.89;1628640;86;21789;-82
2023/03/22 02:32:14;;;;;;;51.18;30.95;;;;;;;4.29;98.76;100084.91;1668520;86;21205;-82
2023/03/22 02:35:49;;;;;;;64.42;33.38;;;;;;;4.23;99.24;100090.86;1667312;86;21233;-81
2023/03/22 02:39:22;;;;;;;54.42;29.72;;;;;;;4.16;99.89;100089.73;1668478;86;21932;-82
2023/03/22 02:42:42;;;;;;;55.95;30.90;;;;;;;4.26;99.97;100091.95;1667454;85;21214;-82
2023/03/22 02:46:02;;;;;;;52.85;29.12;;;;;;;4.16;100.00;100090.23;1668065;86;21218;-82
2023/03/22 02:49:25;;;;;;;59.35;32.88;;;;;;;4.18;100.00;100088.23;1668698;86;21198;-81
2023/03/22 02:52:47;;;;;;;55.65;29.55;;;;;;;4.19;100.00;100085.88;1643173;86;21221;-82
2023/03/22 02:56:20;;;;;;;53.65;31.27;;;;;;;4.13;100.00;100088.65;1666228;85;21241;-82
2023/03/22 02:59:26;;;;;;;69.12;29.05;;;;;;;4.13;100.00;100090.50;1665079;86;21222;-81
2023/03/22 03:02:31;;;;;;;46.83;27.37;;;;;;;4.12;100.00;100093.71;1665704;86;21253;-81
2023/03/22 03:05:39;;;;;;;45.75;28.75;;;;;;;4.03;100.00;100089.14;1665353;86;21214;-81
2023/03/22 03:08:45;;;;;;;51.75;29.95;;;;;;;3.99;100.00;100092.61;1665719;86;21210;-82
2023/03/22 03:11:51;;;;;;;50.20;27.90;;;;;;;3.93;100.00;100096.39;1665873;86;21210;-81
2023/03/22 03:14:44;;;;;;;50.05;27.77;;;;;;;3.92;100.00;100096.03;1664757;86;21832;-81
2023/03/22 03:18:19;;;;;;;46.87;26.03;;;;;;;3.98;100.00;100092.77;1664739;86;21210;-82
2023/03/22 03:21:47;;;;;;;58.23;31.30;;;;;;;4.07;100.00;100104.11;1665666;86;21468;-82
2023/03/22 03:24:59;;;;;;;48.02;29.40;;;;;;;4.13;99.76;100100.83;1665887;86;21261;-82
2023/03/22 03:28:29;;;;;;;54.65;30.60;;;;;;;4.20;99.79;100103.34;1665995;86;21745;-82
2023/03/22 03:32:16;;;;;;;49.13;28.45;;;;;;;4.23;99.84;100106.25;1664768;86;21839;-82
2023/03/22 03:35:37;;;;;;;53.13;28.07;;;;;;;4.27;99.65;100107.69;1666018;86;21261;-82
2023/03/22 03:38:45;;;;;;;;;;;;;;;4.30;98.96;100112.34;1667288;86;21293;-83
2023/03/22 03:41:52;;;;;;;46.90;25.77;;;;;;;4.33;98.27;100113.92;1666101;86;20386;-83
2023/03/22 03:44:58;;;;;;;47.43;26.75;;;;;;;4.17;98.02;100119.02;1666153;86;21218;-83
2023/03/22 03:48:07;;;;;;;50.33;26.17;;;;;;;4.22;97.91;100119.44;1666174;86;21213;-83
2023/03/22 03:51:12;;;;;;;49.38;26.33;;;;;;;4.02;98.01;100126.67;1666218;86;21253;-83
2023/03/22 03:54:18;;;;;;;46.90;26.75;;;;;;;3.93;98.16;100122.09;1664904;86;21513;-83
2023/03/22 03:57:25;;;;;;;57.78;28.55;;;;;;;3.92;98.14;100124.45;1667378;85;21245;-82
2023/03/22 04:00:31;;;;;;;44.45;26.65;;;;;;;3.87;98.37;100122.66;1668751;86;21202;-82
2023/03/22 04:03:54;;;;;;;57.03;28.27;;;;;;;3.81;98.47;100128.09;1668850;86;21205;-83
2023/03/22 04:07:07;;;;;;;48.48;27.42;;;;;;;3.86;98.68;100125.86;1667938;86;21210;-83
2023/03/22 04:10:13;;;;;;;48.05;27.30;;;;;;;3.97;98.68;100128.45;1668744;86;21206;-82
2023/03/22 04:13:05;;;;;;;48.83;28.07;;;;;;;4.02;98.46;100126.67;1668494;86;21470;-83
2023/03/22 04:16:11;;;;;;;53.63;29.10;;;;;;;4.06;98.54;100134.38;1668745;86;21305;-82
2023/03/22 04:19:18;;;;;;;58.30;30.23;;;;;;;4.02;98.71;100131.59;1667528;86;21777;-82
2023/03/22 04:22:18;;;;;;;63.63;33.45;;;;;;;4.06;99.44;100134.38;1668647;86;21796;-82
2023/03/22 04:25:16;;;;;;;63.55;32.75;;;;;;;4.19;99.47;100142.25;1668797;86;21214;-81
2023/03/22 04:28:27;;;;;;;59.23;32.58;;;;;;;4.26;99.55;100144.74;1668297;86;21221;-83
2023/03/22 04:31:39;;;;;;;61.53;32.38;;;;;;;4.38;99.87;100145.48;1668768;86;21809;-82
2023/03/22 04:34:48;;;;;;;57.35;31.87;;;;;;;4.57;99.47;100146.00;1668671;86;21808;-82
2023/03/22 04:37:47;;;;;;;60.63;31.25;;;;;;;4.52;99.68;100146.94;1667865;86;21403;-82
2023/03/22 04:40:56;;;;;;;74.20;34.18;;;;;;;4.52;100.00;100150.49;1668578;86;21215;-82
2023/03/22 04:44:04;;;;;;;62.73;34.03;;;;;;;4.58;100.00;100155.84;1667925;86;21249;-82
2023/03/22 04:47:11;;;;;;;80.72;35.17;;;;;;;4.68;100.00;100158.05;1668127;86;21820;-82
2023/03/22 04:50:17;;;;;;;84.75;38.90;;;;;;;4.86;100.00;100160.41;1668709;86;21213;-81
2023/03/22 04:53:26;;;;;;;82.75;39.63;;;;;;;5.07;100.00;100156.66;1668661;86;21257;-81
2023/03/22 04:56:32;;;;;;;79.90;40.80;;;;;;;5.15;100.00;100158.16;1667867;86;21418;-82
2023/03/22 04:59:38;;;;;;;89.30;42.08;;;;;;;5.31;100.00;100160.26;1667843;86;21805;-81
2023/03/22 05:02:45;;;;;;;86.47;41.85;;;;;;;5.54;100.00;100168.91;1667465;86;22316;-82
2023/03/22 05:06:05;;;;;;;70.90;39.23;;;;;;;5.74;100.00;100167.86;1667650;86;21760;-83
2023/03/22 05:09:09;;;;;;;83.30;40.05;;;;;;;5.93;100.00;100172.86;1667599;85;21250;-82
2023/03/22 05:12:15;;;;;;;69.77;39.83;;;;;;;6.02;100.00;100167.89;1668738;86;21209;-83
2023/03/22 05:15:31;;;;;;;77.53;42.25;;;;;;;6.14;100.00;100172.98;1668691;86;21233;-82
2023/03/22 05:18:44;;;;;;;72.08;41.88;;;;;;;6.32;100.00;100164.03;1667482;85;21305;-83
2023/03/22 05:21:45;;;;;;;70.50;41.15;;;;;;;6.60;100.00;100171.63;1668670;86;21189;-82
2023/03/22 05:24:53;;;;;;;72.62;38.28;;;;;;;6.62;100.00;100169.09;1668675;86;21217;-82
2023/03/22 05:28:00;;;;;;;69.07;39.50;;;;;;;6.74;100.00;100172.45;1646245;86;21262;-83
2023/03/22 05:31:13;;;;;;;70.30;39.05;;;;;;;6.96;100.00;100175.19;1668837;86;21206;-82
2023/03/22 05:34:20;;;;;;;75.57;37.35;;;;;;;7.16;100.00;100174.53;1667274;86;21269;-82
2023/03/22 05:37:28;;;;;;;73.25;39.88;;;;;;;7.42;100.00;100173.19;1668333;86;21229;-83
2023/03/22 05:40:35;;;;;;;59.03;36.73;;;;;;;7.82;100.00;100177.19;1668781;86;21255;-82
2023/03/22 05:43:40;;;;;;;79.37;40.65;;;;;;;7.95;99.00;100178.94;1668560;86;21206;-82
2023/03/22 05:46:48;;;;;;;72.32;38.45;;;;;;;8.07;98.99;100181.73;1667318;85;21202;-82
2023/03/22 05:49:57;;;;;;;74.80;40.33;;;;;;;8.32;98.58;100186.77;1667522;86;21233;-82
2023/03/22 05:53:02;;;;;;;69.87;40.58;;;;;;;8.37;98.46;100192.60;1668575;86;21186;-82
2023/03/22 05:56:20;;;;;;;64.97;38.08;;;;;;;8.56;98.24;100194.23;1668476;86;21265;-82
2023/03/22 05:59:21;;;;;;;67.65;39.53;;;;;;;8.72;97.88;100204.83;1666652;86;21240;-82
2023/03/22 06:02:28;;;;;;;63.73;36.88;;;;;;;8.87;97.18;100199.90;1667224;86;21210;-82
2023/03/22 06:05:36;;;;;;;66.80;37.93;;;;;;;9.04;96.34;100209.48;1667187;85;21589;-82
2023/03/22 06:08:43;;;;;;;62.27;34.92;;;;;;;9.24;95.41;100208.64;1667720;86;21218;-82
2023/03/22 06:11:50;;;;;;;62.67;36.88;;;;;;;9.45;94.50;100211.69;1669134;84;21194;-82
2023/03/22 06:14:55;;;;;;;65.83;36.55;;;;;;;9.53;93.88;100214.94;1679440;85;21520;-82
2023/03/22 06:18:04;;;;;;;67.53;33.83;;;;;;;9.72;93.29;100205.02;1669445;85;21273;-82
2023/03/22 06:21:11;;;;;;;60.05;35.70;;;;;;;9.74;93.02;100211.17;1693630;84;21213;-83
2023/03/22 06:24:18;;;;;;;67.80;36.55;;;;;;;9.75;92.77;100215.61;1653551;86;21856;-82
2023/03/22 06:27:25;;;;;;;60.08;35.98;;;;;;;9.86;92.50;100213.02;1680439;85;21185;-81
2023/03/22 06:30:32;;;;;;;52.80;33.45;;;;;;;9.99;92.17;100217.43;1643422;86;21211;-81
2023/03/22 06:33:49;;;;;;;63.35;34.70;;;;;;;10.03;91.60;100224.77;1654513;85;21260;-82
2023/03/22 06:37:03;;;;;;;62.38;36.48;;;;;;;10.08;91.48;100224.58;1655622;86;21196;-82
2023/03/22 06:40:12;;;;;;;66.25;35.65;;;;;;;10.19;90.80;100222.83;1648543;87;21202;-82
2023/03/22 06:43:19;;;;;;;66.90;35.88;;;;;;;10.06;90.73;100227.13;1667180;86;21202;-82
2023/03/22 06:46:27;;;;;;;55.90;33.73;;;;;;;10.05;90.94;100228.17;1674161;84;21190;-83
2023/03/22 06:49:34;;;;;;;57.70;33.30;;;;;;;10.02;90.82;100228.51;1679316;84;21205;-82
2023/03/22 06:52:46;;;;;;;61.55;33.83;;;;;;;10.00;90.78;100231.42;1694149;84;21263;-82
2023/03/22 06:55:51;;;;;;;57.45;32.70;;;;;;;10.08;90.26;100230.05;1669669;84;21261;-82
2023/03/22 06:59:00;;;;;;;56.42;32.50;;;;;;;10.13;90.36;100233.63;1687811;84;21268;-82
2023/03/22 07:02:07;;;;;;;55.80;33.13;;;;;;;10.25;90.45;100232.23;1690230;84;21198;-82
2023/03/22 07:05:15;;;;;;;52.98;31.23;;;;;;;10.36;91.19;100239.22;1672402;84;21189;-83
2023/03/22 07:08:21;;;;;;;44.75;27.60;;;;;;;10.68;89.90;100240.94;1638063;86;21213;-82
2023/03/22 07:11:29;;;;;;;49.00;28.85;;;;;;;10.78;88.94;100240.73;1651689;86;21224;-83
2023/03/22 07:14:36;;;;;;;58.40;30.55;;;;;;;10.85;88.36;100243.92;1677340;84;21767;-82
2023/03/22 07:17:47;;;;;;;66.90;30.60;;;;;;;10.85;88.36;100241.19;1669541;84;21217;-82
2023/03/22 07:20:41;;;;;;;60.35;29.72;;;;;;;10.92;87.86;100244.08;1672292;84;21202;-82
2023/03/22 07:23:46;;;;;;;51.88;28.75;;;;;;;11.01;88.37;100241.63;1685005;84;21466;-82
2023/03/22 07:26:52;;;;;;;51.70;28.30;;;;;;;11.14;87.38;100239.64;1679957;84;21483;-83
2023/03/22 07:29:58;;;;;;;49.70;27.87;;;;;;;11.29;86.93;100243.28;1682536;84;21824;-82
2023/03/22 07:33:09;;;;;;;48.95;26.60;;;;;;;11.32;86.68;100245.67;1679101;84;21194;-82
2023/03/22 07:36:22;;;;;;;44.20;25.85;;;;;;;11.44;86.73;100246.95;1679643;84;21212;-82
2023/03/22 07:39:26;;;;;;;58.17;27.90;;;;;;;11.56;86.11;100245.14;1660572;84;21201;-82
2023/03/22 07:42:33;;;;;;;43.13;24.35;;;;;;;11.60;85.06;100244.59;1678636;84;21194;-83
2023/03/22 07:45:43;;;;;;;42.10;23.87;;;;;;;11.76;84.45;100247.20;1680326;84;21219;-82
2023/03/22 07:49:00;;;;;;;36.38;22.42;;;;;;;11.72;84.10;100249.12;1669788;84;21209;-82
2023/03/22 07:52:06;;;;;;;47.80;23.80;;;;;;;11.84;83.50;100247.65;1629007;86;21318;-82
2023/03/22 07:55:12;;;;;;;42.25;24.65;;;;;;;11.89;82.88;100247.94;1668071;84;21238;-82
2023/03/22 07:58:19;;;;;;;47.38;24.80;;;;;;;11.99;82.42;100254.52;1673972;84;21260;-82
2023/03/22 08:01:26;;;;;;;40.88;23.65;;;;;;;12.20;82.26;100246.95;1670741;84;21234;-82
2023/03/22 08:04:36;;;;;;;44.88;23.22;;;;;;;12.35;81.39;100249.17;1685632;84;21174;-82
2023/03/22 08:07:44;;;;;;;39.20;23.83;;;;;;;12.47;80.50;100245.45;1672461;84;21207;-82
2023/03/22 08:10:57;;;;;;;40.03;22.80;;;;;;;12.47;79.98;100249.56;1675557;84;21256;-82
2023/03/22 08:14:03;;;;;;;42.73;23.47;;;;;;;12.69;79.54;100253.20;1669909;84;21314;-84
2023/03/22 08:17:10;;;;;;;40.85;23.52;;;;;;;12.79;78.42;100247.73;1683432;85;21823;-83
2023/03/22 08:20:17;;;;;;;32.78;21.52;;;;;;;12.89;77.08;100252.95;1682135;84;21526;-83
2023/03/22 08:23:24;;;;;;;;;;;;;;;12.94;76.59;100253.23;1677365;84;21225;-84
2023/03/22 08:26:39;;;;;;;36.77;21.33;;;;;;;12.87;75.84;100246.78;1667907;84;20228;-83
2023/03/22 08:29:47;;;;;;;36.80;22.13;;;;;;;13.00;74.86;100255.71;1675530;84;21252;-83
2023/03/22 08:32:54;;;;;;;32.35;20.68;;;;;;;12.90;74.31;100252.43;1656279;84;22256;-84
2023/03/22 08:36:17;;;;;;;37.70;22.80;;;;;;;12.87;73.60;100250.91;1671199;84;21209;-83
2023/03/22 08:39:24;;;;;;;40.50;23.50;;;;;;;12.83;72.81;100256.97;1672034;84;21194;-83
2023/03/22 08:42:32;;;;;;;37.67;23.70;;;;;;;12.90;73.11;100254.65;1682876;84;21178;-83
2023/03/22 08:45:37;;;;;;;36.50;21.15;;;;;;;13.09;72.51;100254.55;1683439;84;21203;-84
2023/03/22 08:48:49;;;;;;;38.50;19.30;;;;;;;13.21;72.39;100254.88;1676137;84;21261;-84
2023/03/22 08:51:54;;;;;;;45.78;22.58;;;;;;;13.33;71.73;100255.27;1671824;84;21772;-83
2023/03/22 08:55:16;;;;;;;46.40;23.32;;;;;;;13.40;69.59;100255.64;1654888;84;21233;-86
2023/03/22 08:58:37;;;;;;;34.03;21.62;;;;;;;13.45;68.93;100250.40;1668448;84;21242;-83
2023/03/22 09:01:44;;;;;;;38.63;22.02;;;;;;;13.47;67.90;100252.45;1676598;84;21253;-83
2023/03/22 09:04:51;;;;;;;29.10;20.77;;;;;;;13.21;67.59;100248.01;1675520;84;21222;-83
2023/03/22 09:08:01;;;;;;;44.90;23.55;;;;;;;13.07;67.86;100250.28;1681384;84;21194;-83
2023/03/22 09:11:03;;;;;;;44.75;24.82;;;;;;;12.98;68.71;100250.92;1672184;84;21213;-83
2023/03/22 09:13:58;;;;;;;51.13;24.35;;;;;;;12.89;69.60;100250.70;1675988;84;21270;-83
2023/03/22 09:16:51;;;;;;;44.10;24.43;;;;;;;12.86;70.17;100246.47;1673995;84;21202;-83
2023/03/22 09:19:58;;;;;;;49.05;24.30;;;;;;;12.91;71.01;100250.86;1661879;84;21260;-84
2023/03/22 09:23:07;;;;;;;34.98;22.52;;;;;;;13.14;70.52;100253.97;1676418;84;21897;-84
2023/03/22 09:26:15;;;;;;;43.63;24.02;;;;;;;13.17;68.62;100255.78;1672147;84;21213;-84
2023/03/22 09:29:22;;;;;;;47.30;25.23;;;;;;;13.14;67.76;100251.22;1671847;84;21219;-84
2023/03/22 09:32:31;;;;;;;48.38;26.40;;;;;;;13.14;67.70;100248.48;1679196;84;21248;-82
2023/03/22 09:35:38;;;;;;;48.38;27.62;;;;;;;13.21;67.03;100246.64;1682784;84;21198;-82
2023/03/22 09:38:46;;;;;;;54.33;30.55;;;;;;;13.34;65.64;100250.94;1684167;84;21197;-83
2023/03/22 09:42:05;;;;;;;41.53;24.90;;;;;;;13.42;65.12;100247.22;1669744;84;21216;-82
2023/03/22 09:45:11;;;;;;;58.83;31.50;;;;;;;13.60;65.99;100250.85;1666245;84;21210;-82
2023/03/22 09:48:37;;;;;;;60.38;33.48;;;;;;;13.68;63.06;100241.09;1671205;84;21205;-82
2023/03/22 09:51:54;;;;;;;68.55;34.43;;;;;;;13.63;63.23;100246.34;1673844;84;21194;-82
2023/03/22 09:55:00;;;;;;;70.80;40.12;;;;;;;13.74;63.60;100242.55;1679664;84;21505;-82
2023/03/22 09:58:26;;;;;;;65.97;36.83;;;;;;;13.81;60.99;100249.47;1678460;84;21215;-82
2023/03/22 10:01:46;;;;;;;72.67;38.23;;;;;;;13.92;61.33;100251.66;1616859;87;21222;-82
2023/03/22 10:05:20;;;;;;;65.97;34.00;;;;;;;13.91;60.27;100244.47;1676950;84;21197;-82
2023/03/22 10:08:47;;;;;;;53.38;28.95;;;;;;;13.91;61.40;100247.22;1668884;84;21231;-82
2023/03/22 10:12:05;;;;;;;59.73;31.27;;;;;;;14.17;63.12;100247.10;1685700;84;21202;-83
2023/03/22 10:15:22;;;;;;;67.20;35.20;;;;;;;14.33;62.41;100242.64;1682512;85;21792;-82
2023/03/22 10:18:44;;;;;;;60.78;31.55;;;;;;;14.50;60.68;100244.59;1681392;84;21206;-83
2023/03/22 10:21:51;;;;;;;68.33;36.33;;;;;;;14.66;59.60;100244.23;1673518;85;21799;-82
2023/03/22 10:24:57;;;;;;;63.10;35.83;;;;;;;14.63;59.76;100238.28;1688892;84;21230;-83
2023/03/22 10:27:55;;;;;;;67.60;35.90;;;;;;;14.59;59.44;100236.48;1670792;84;21179;-84
2023/03/22 10:30:52;;;;;;;56.48;33.60;;;;;;;14.48;59.62;100231.01;1677891;84;21224;-83
2023/03/22 10:33:49;;;;;;;68.78;35.28;;;;;;;14.51;58.85;100226.48;1690750;84;21246;-82
2023/03/22 10:36:59;;;;;;;63.60;32.40;;;;;;;14.54;58.64;100229.37;1693442;84;21241;-83
2023/03/22 10:40:05;;;;;;;61.65;35.00;;;;;;;14.51;57.93;100227.86;1694055;84;21203;-83
2023/03/22 10:43:28;;;;;;;51.23;30.40;;;;;;;14.57;57.46;100221.52;1688174;84;21859;-82
2023/03/22 10:46:39;;;;;;;40.20;22.42;;;;;;;14.63;57.15;100220.38;1665397;86;21247;-83
2023/03/22 10:49:47;;;;;;;;;;;;;;;14.69;55.06;100209.42;1666940;85;21190;-83
2023/03/22 10:53:00;;;;;;;52.93;26.62;;;;;;;14.64;53.13;100212.47;1666780;84;20223;-82
2023/03/22 10:56:06;;;;;;;41.65;23.90;;;;;;;14.53;52.79;100212.51;1681155;84;21189;-82
2023/03/22 10:59:12;;;;;;;40.20;19.52;;;;;;;14.44;53.42;100206.28;1673315;84;21740;-83
2023/03/22 11:02:35;;;;;;;41.23;19.87;;;;;;;14.35;51.73;100210.29;1673186;84;22549;-83
2023/03/22 11:05:42;;;;;;;43.35;24.12;;;;;;;14.25;49.59;100216.66;1628539;86;21237;-83
2023/03/22 11:08:55;;;;;;;46.95;24.72;;;;;;;14.05;51.03;100207.77;1637398;86;21194;-83
2023/03/22 11:12:05;;;;;;;42.90;23.35;;;;;;;13.97;51.87;100198.31;1644999;86;21195;-83
2023/03/22 11:15:11;;;;;;;40.75;22.27;;;;;;;13.95;51.90;100196.80;1642932;86;21237;-83
2023/03/22 11:18:22;;;;;;;36.93;19.42;;;;;;;13.94;51.85;100198.70;1633070;86;21212;-82
2023/03/22 11:21:31;;;;;;;36.88;19.60;;;;;;;13.97;52.19;100192.81;1655776;86;21193;-82
2023/03/22 11:24:39;;;;;;;44.30;22.67;;;;;;;13.64;52.99;100195.82;1628435;86;21274;-82
2023/03/22 11:27:45;;;;;;;52.75;24.00;;;;;;;13.54;54.44;100181.89;1649665;86;21222;-83
2023/03/22 11:31:24;;;;;;;41.10;24.63;;;;;;;13.65;55.44;100179.15;1603946;86;21852;-82
2023/03/22 11:34:36;;;;;;;37.83;20.60;;;;;;;13.98;55.72;100170.30;1630098;86;21269;-82
2023/03/22 11:37:44;;;;;;;52.08;22.67;;;;;;;14.18;53.31;100171.25;1628754;86;21187;-83
2023/03/22 11:40:55;;;;;;;50.28;21.77;;;;;;;14.25;51.21;100174.02;1623724;86;21215;-83
2023/03/22 11:44:08;;;;;;;46.25;24.07;;;;;;;14.63;50.50;100170.84;1632264;86;21283;-83
2023/03/22 11:47:16;;;;;;;37.60;19.27;;;;;;;14.47;50.89;100170.11;1653043;86;21209;-82
2023/03/22 11:50:35;;;;;;;41.13;20.25;;;;;;;14.51;50.01;100174.19;1638041;86;21717;-82
2023/03/22 11:53:43;;;;;;;39.05;19.60;;;;;;;14.66;49.54;100173.19;1638946;86;21209;-83
2023/03/22 11:56:52;;;;;;;33.42;17.92;;;;;;;14.68;48.84;100175.19;1629652;87;21824;-82
2023/03/22 12:00:26;;;;;;;35.20;18.77;;;;;;;14.72;48.47;100166.31;1630104;86;21759;-82
2023/03/22 12:03:36;;;;;;;32.73;17.85;;;;;;;14.91;47.92;100172.09;1628897;88;21262;-82
2023/03/22 12:06:46;;;;;;;36.85;19.52;;;;;;;14.91;47.47;100171.56;1683505;84;21253;-82
2023/03/22 12:10:08;;;;;;;42.77;21.47;;;;;;;14.87;47.28;100167.55;1668654;84;21245;-82
2023/03/22 12:13:36;;;;;;;35.68;19.57;;;;;;;14.94;47.09;100179.41;1646271;85;21253;-82
2023/03/22 12:16:49;;;;;;;40.48;19.80;;;;;;;14.87;46.74;100167.55;1651656;84;21205;-83
2023/03/22 12:20:35;;;;;;;45.00;20.20;;;;;;;14.90;46.44;100174.00;1678895;84;21812;-83
2023/03/22 12:23:43;;;;;;;43.38;23.32;;;;;;;14.94;46.52;100168.40;1677350;84;21194;-83
2023/03/22 12:26:51;;;;;;;46.63;25.02;;;;;;;14.86;47.13;100165.83;1671445;84;21178;-83
2023/03/22 12:30:07;;;;;;;45.08;22.95;;;;;;;14.77;47.74;100171.20;1676894;84;21215;-82
2023/03/22 12:33:33;;;;;;;42.38;22.40;;;;;;;14.65;47.93;100167.37;1673244;84;21249;-83
2023/03/22 12:36:49;;;;;;;35.80;20.50;;;;;;;14.77;47.80;100164.31;1681037;84;21190;-83
2023/03/22 12:40:06;;;;;;;37.35;20.88;;;;;;;14.62;48.47;100168.61;1679271;84;21339;-84
2023/03/22 12:43:25;;;;;;;41.55;21.12;;;;;;;14.61;48.39;100163.33;1676999;84;21262;-82
2023/03/22 12:46:41;;;;;;;39.35;21.23;;;;;;;14.63;48.44;100166.70;1672034;84;22702;-82
2023/03/22 12:49:54;;;;;;;47.58;22.10;;;;;;;14.47;48.73;100159.11;1668228;84;21218;-82
2023/03/22 12:53:03;;;;;;;40.60;21.95;;;;;;;14.52;47.93;100164.88;1664575;85;21242;-83
2023/03/22 12:56:07;;;;;;;47.62;20.15;;;;;;;14.44;47.87;100167.77;1672821;84;21511;-83
2023/03/22 12:59:16;;;;;;;34.10;19.02;;;;;;;14.50;46.46;100170.28;1674799;84;21198;-82
2023/03/22 13:02:28;;;;;;;36.42;19.80;;;;;;;14.55;45.77;100171.35;1655669;84;21234;-82
2023/03/22 13:05:36;;;;;;;47.15;21.10;;;;;;;14.51;45.39;100168.69;1681626;84;21221;-82
2023/03/22 13:09:23;;;;;;;37.13;19.77;;;;;;;14.50;45.92;100170.28;1650796;85;21202;-82
2023/03/22 13:12:33;;;;;;;38.17;20.12;;;;;;;14.39;46.52;100164.78;1681198;84;21229;-83
2023/03/22 13:15:42;;;;;;;39.30;21.02;;;;;;;14.37;46.98;100168.27;1629371;87;21206;-82
2023/03/22 13:18:58;;;;;;;46.63;22.35;;;;;;;14.25;47.69;100168.52;1653837;86;21800;-82
2023/03/22 13:22:17;;;;;;;42.55;22.87;;;;;;;14.37;48.15;100164.15;1678309;84;21200;-83
2023/03/22 13:25:22;;;;;;;42.58;21.62;;;;;;;14.29;48.43;100165.69;1674705;84;21203;-82
2023/03/22 13:28:26;;;;;;;45.58;23.02;;;;;;;14.27;48.79;100163.68;1683729;84;21189;-82
2023/03/22 13:31:24;;;;;;;43.28;21.65;;;;;;;14.22;48.71;100168.95;1691523;84;21190;-82
2023/03/22 13:34:38;;;;;;;47.00;22.77;;;;;;;14.01;49.20;100167.96;1673066;84;21198;-83
2023/03/22 13:37:52;;;;;;;45.43;23.40;;;;;;;14.00;49.53;100157.17;1639468;86;21203;-82
2023/03/22 13:41:35;;;;;;;42.15;23.35;;;;;;;13.92;49.50;100156.80;1684682;84;21261;-83
2023/03/22 13:44:46;;;;;;;38.15;21.57;;;;;;;13.90;48.80;100157.54;1678179;84;21754;-83
2023/03/22 13:47:53;;;;;;;41.37;21.40;;;;;;;13.85;48.55;100152.33;1631814;86;21219;-82
2023/03/22 13:50:59;;;;;;;37.38;21.95;;;;;;;13.88;48.61;100150.53;1651288;86;21214;-82
2023/03/22 13:54:24;;;;;;;37.95;21.30;;;;;;;13.85;48.56;100148.20;1661241;84;21229;-83
2023/03/22 13:57:26;;;;;;;50.90;22.82;;;;;;;13.82;48.67;100149.44;1695292;84;21317;-83
2023/03/22 14:00:43;;;;;;;50.43;22.50;;;;;;;13.85;48.52;100146.83;1632373;86;21274;-83
2023/03/22 14:03:51;;;;;;;38.05;20.90;;;;;;;13.81;48.42;100145.00;1696545;84;21773;-84
2023/03/22 14:07:22;;;;;;;40.80;21.33;;;;;;;13.76;46.66;100147.50;1675983;85;21851;-82
2023/03/22 14:10:59;;;;;;;76.02;29.52;;;;;;;13.84;47.82;100141.86;1691513;84;21194;-82
2023/03/22 14:14:13;;;;;;;51.83;23.73;;;;;;;13.85;46.94;100140.80;1692541;84;21206;-83
2023/03/22 14:17:48;;;;;;;40.35;21.17;;;;;;;13.84;46.93;100136.36;1691423;84;21519;-82
2023/03/22 14:20:56;;;;;;;43.02;21.87;;;;;;;13.82;46.80;100146.69;1691722;84;21827;-82
2023/03/22 14:24:02;;;;;;;40.75;22.58;;;;;;;13.79;47.16;100144.36;1672316;84;21386;-82
2023/03/22 14:27:07;;;;;;;48.35;23.50;;;;;;;13.76;47.48;100147.50;1692964;84;21241;-83
2023/03/22 14:30:13;;;;;;;43.58;23.62;;;;;;;13.74;47.99;100147.72;1692566;84;21269;-83
2023/03/22 14:33:29;;;;;;;41.30;20.80;;;;;;;13.69;47.77;100149.34;1693326;84;21198;-82